PDT,Max TemperatureF,Mean TemperatureF,Min TemperatureF,Max Dew PointF,MeanDew PointF,Min DewpointF,Max Humidity, Mean Humidity, Min Humidity, Max Sea Level PressureIn, Mean Sea Level PressureIn, Min Sea Level PressureIn, Max VisibilityMiles, Mean VisibilityMiles, Min VisibilityMiles, Max Wind SpeedMPH, Mean Wind SpeedMPH, Max Gust SpeedMPH,PrecipitationIn, CloudCover, Events, WindDirDegrees
2012-9-1,60,52,44,50,47,45,100,94,63,30.05,30.03,30.01,9,5,0,14,6,23,0.00,4,Fog-Rain,97
2012-9-2,57,54,50,54,50,48,100,93,82,30.25,30.14,30.04,9,5,1,10,7,,0.00,7,Rain,166
2012-9-3,57,54,50,54,52,50,100,96,82,30.30,30.27,30.24,9,6,2,12,5,,0.00,8,Rain,152
2012-9-4,55,53,51,55,53,50,100,96,88,30.30,30.29,30.27,9,5,2,10,5,,0.00,8,Rain,152
2012-9-5,59,54,48,54,49,46,100,96,77,30.30,30.29,30.26,9,5,0,14,4,17,0.00,5,Fog,46
2012-9-6,60,55,50,57,52,48,100,96,72,30.29,30.26,30.25,9,4,1,8,3,,0.00,7,Rain,144
2012-9-7,62,53,44,50,48,45,100,83,63,30.30,30.26,30.18,9,9,9,13,5,,0.00,0,,349
2012-9-8,66,55,44,54,48,45,100,79,52,30.17,29.96,29.72,9,9,9,8,4,,0.00,1,,150
2012-9-9,62,56,50,54,50,46,100,89,68,29.81,29.69,29.62,9,7,3,22,11,31,0.00,8,Rain,186
2012-9-10,53,50,48,48,47,43,94,88,77,30.15,30.00,29.81,9,8,3,14,7,21,0.00,8,Rain,200
2012-9-11,53,50,48,50,48,46,100,92,82,30.30,30.24,30.15,9,8,3,12,7,,0.00,8,Rain,145
2012-9-12,55,52,50,52,50,48,100,91,82,30.28,30.25,30.22,9,7,2,22,12,32,0.00,8,Rain,146
2012-9-13,62,56,51,54,51,48,100,87,63,30.24,30.09,29.96,9,9,4,23,17,38,0.00,7,Rain,153
2012-9-14,57,52,46,50,49,46,100,89,77,30.27,30.23,30.12,9,9,9,9,5,,0.00,4,,38
2012-9-15,59,50,42,50,46,41,100,89,59,30.39,30.34,30.27,9,9,9,14,6,21,0.00,0,,358
2012-9-16,57,49,41,50,46,41,100,88,67,30.38,30.35,30.29,9,8,4,10,5,,0.00,0,,12
2012-9-17,57,49,41,52,47,41,100,96,72,30.29,30.21,30.16,9,4,0,12,2,,0.00,6,Fog-Rain,20
2012-9-18,55,52,48,54,51,46,100,97,88,30.22,30.18,30.16,9,4,0,12,4,,0.00,7,Fog-Rain,340
2012-9-19,62,54,46,54,48,45,100,96,59,30.24,30.20,30.18,9,4,0,9,3,,0.00,3,Fog,78
2012-9-20,66,54,42,54,46,43,100,91,60,30.17,30.09,30.02,9,6,0,6,3,,0.00,0,Fog,89
2012-9-21,55,50,46,54,49,45,100,97,88,30.11,30.07,30.04,9,4,0,7,3,,0.00,4,Fog-Rain,87
2012-9-22,64,58,53,52,50,48,94,81,56,30.13,30.11,30.06,9,9,9,14,5,18,0.00,6,,111
2012-9-23,57,55,53,55,52,46,100,93,67,30.17,30.14,30.10,9,8,2,12,5,,0.00,8,Rain,136
2012-9-24,57,52,44,54,51,45,100,96,77,30.25,30.20,30.16,9,5,1,8,2,,0.00,6,Rain,265
2012-9-25,55,48,42,48,44,43,100,95,77,30.24,30.18,30.09,9,5,0,10,5,,0.00,4,Fog-Rain,82
2012-9-26,60,55,50,50,47,43,100,80,63,30.10,29.96,29.79,9,8,3,25,12,40,0.00,8,Rain,138
2012-9-27,57,52,48,55,51,48,100,95,82,29.87,29.78,29.65,9,5,2,29,15,41,0.00,8,Rain,132
2012-9-28,57,50,42,52,46,41,100,93,72,30.01,29.94,29.87,9,6,0,12,5,18,0.00,4,Fog-Rain,122
2012-9-29,53,50,48,50,49,46,100,94,82,30.21,30.10,30.01,9,8,2,13,8,22,0.00,8,Rain,153
2012-9-30,55,52,48,54,50,46,100,93,87,30.22,30.09,29.84,9,6,2,21,8,31,0.00,8,Rain,120